Time;durP1;ratioP1;P1;durP2;ratioP2;P2;SDS_P1;SDS_P2;PMS_P1;PMS_P2;Temp;Humidity;BMP_temperature;BMP_pressure;BME280_temperature;BME280_humidity;BME280_pressure;Samples;Min_cycle;Max_cycle;Signal;HPM_P1;HPM_P2
2021/06/02 00:01:12;;;;;;;6.68;4.82;;;;;;;;;;3586863;40;20129;-58
2021/06/02 00:03:39;;;;;;;5.85;4.63;;;;;;;;;;3586155;40;20402;-58
2021/06/02 00:06:05;;;;;;;6.50;4.50;;;;;;;;;;3587450;40;20044;-59
2021/06/02 00:08:33;;;;;;;6.28;3.97;;;;;;;;;;3586421;40;20351;-59
2021/06/02 00:11:00;;;;;;;5.65;4.13;;;;;;;;;;3586134;40;20036;-59
2021/06/02 00:13:25;;;;;;;5.75;4.78;;;;;;;;;;3586314;40;20078;-59
2021/06/02 00:15:51;;;;;;;6.95;4.50;;;;;;;;;;3587091;40;20033;-60
2021/06/02 00:18:16;;;;;;;6.35;4.82;;;;;;;;;;3586183;40;20033;-58
2021/06/02 00:20:42;;;;;;;7.53;4.53;;;;;;;;;;3584627;40;20443;-58
2021/06/02 00:23:08;;;;;;;7.65;4.57;;;;;;;;;;3587391;40;20117;-57
2021/06/02 00:25:33;;;;;;;6.45;4.30;;;;;;;;;;3586636;40;20372;-58
2021/06/02 00:27:59;;;;;;;5.82;4.40;;;;;;;;;;3585994;40;20040;-58
2021/06/02 00:30:25;;;;;;;7.18;5.25;;;;;;;;;;3584935;40;20033;-55
2021/06/02 00:32:50;;;;;;;7.32;4.82;;;;;;;;;;3587161;40;20064;-57
2021/06/02 00:35:18;;;;;;;5.72;4.53;;;;;;;;;;3587057;40;20268;-58
2021/06/02 00:37:43;;;;;;;8.00;4.95;;;;;;;;;;3584714;40;20371;-58
2021/06/02 00:40:24;;;;;;;6.18;4.43;;;;;;;;;;3585311;40;20137;-58
2021/06/02 00:42:51;;;;;;;7.15;5.22;;;;;;;;;;3585337;40;20063;-58
2021/06/02 00:45:18;;;;;;;7.38;5.35;;;;;;;;;;3585841;40;20056;-58
2021/06/02 00:47:43;;;;;;;11.43;5.93;;;;;;;;;;3585217;40;20472;-57
2021/06/02 00:50:09;;;;;;;7.32;5.40;;;;;;;;;;3578592;40;20061;-57
2021/06/02 00:52:37;;;;;;;7.22;5.05;;;;;;;;;;3586211;40;20045;-58
2021/06/02 00:55:03;;;;;;;6.47;4.90;;;;;;;;;;3586565;40;20064;-58
2021/06/02 00:57:31;;;;;;;7.47;4.60;;;;;;;;;;3587741;40;20035;-57
2021/06/02 01:00:04;;;;;;;6.75;5.20;;;;;;;;;;3586808;40;20614;-58
2021/06/02 01:02:30;;;;;;;6.55;4.47;;;;;;;;;;3586715;40;20037;-58
2021/06/02 01:04:56;;;;;;;8.45;4.70;;;;;;;;;;3588464;40;20775;-57
2021/06/02 01:07:22;;;;;;;7.57;5.03;;;;;;;;;;3586840;40;20033;-58
2021/06/02 01:09:51;;;;;;;7.55;5.18;;;;;;;;;;3586097;40;20037;-57
2021/06/02 01:12:18;;;;;;;7.70;4.90;;;;;;;;;;3586974;40;20142;-57
2021/06/02 01:14:45;;;;;;;13.27;5.07;;;;;;;;;;3579239;40;20404;-58
2021/06/02 01:17:15;;;;;;;5.70;4.68;;;;;;;;;;3588071;40;20032;-57
2021/06/02 01:19:42;;;;;;;5.97;4.63;;;;;;;;;;3587078;40;20149;-58
2021/06/02 01:22:08;;;;;;;7.55;4.72;;;;;;;;;;3588507;40;20060;-57
2021/06/02 01:24:34;;;;;;;7.55;4.68;;;;;;;;;;3587500;40;20133;-58
2021/06/02 01:27:04;;;;;;;7.05;4.32;;;;;;;;;;3578543;40;20052;-58
2021/06/02 01:29:30;;;;;;;7.10;4.50;;;;;;;;;;3587040;40;20050;-58
2021/06/02 01:32:10;;;;;;;7.30;4.57;;;;;;;;;;3579362;40;20608;-58
2021/06/02 01:35:15;;;;;;;8.05;5.15;;;;;;;;;;3587645;40;20419;-58
2021/06/02 01:37:43;;;;;;;9.07;4.80;;;;;;;;;;3587468;40;22542;-58
2021/06/02 01:40:33;;;;;;;8.32;4.25;;;;;;;;;;3586887;40;20045;-58
2021/06/02 01:43:47;;;;;;;6.25;4.07;;;;;;;;;;3587461;40;20036;-58
2021/06/02 01:46:40;;;;;;;11.18;4.90;;;;;;;;;;3578363;40;20040;-58
2021/06/02 01:49:27;;;;;;;6.07;4.35;;;;;;;;;;3586776;40;20122;-58
2021/06/02 01:52:18;;;;;;;12.88;5.47;;;;;;;;;;3587124;40;20122;-58
2021/06/02 01:55:05;;;;;;;5.82;4.10;;;;;;;;;;3587798;40;20563;-58
2021/06/02 01:57:31;;;;;;;6.85;4.40;;;;;;;;;;3585620;40;20113;-58
2021/06/02 02:00:10;;;;;;;5.53;4.45;;;;;;;;;;3586752;40;20052;-58
2021/06/02 02:03:09;;;;;;;5.70;4.38;;;;;;;;;;3587841;40;20125;-57
2021/06/02 02:05:35;;;;;;;5.68;4.47;;;;;;;;;;3585745;40;20025;-59
2021/06/02 02:08:42;;;;;;;6.50;4.85;;;;;;;;;;3586558;40;20064;-58
2021/06/02 02:11:19;;;;;;;8.07;4.75;;;;;;;;;;3570573;40;20032;-58
2021/06/02 02:13:54;;;;;;;6.57;4.35;;;;;;;;;;3586658;40;20036;-59
2021/06/02 02:16:19;;;;;;;7.65;4.85;;;;;;;;;;3583174;40;20043;-59
2021/06/02 02:19:01;;;;;;;8.15;5.10;;;;;;;;;;3585367;40;20040;-58
2021/06/02 02:21:42;;;;;;;8.23;4.90;;;;;;;;;;3579418;40;20028;-58
2021/06/02 02:24:10;;;;;;;6.68;4.45;;;;;;;;;;3586418;40;20076;-58
2021/06/02 02:26:36;;;;;;;5.70;4.43;;;;;;;;;;3587429;40;20253;-59
2021/06/02 02:29:39;;;;;;;11.80;5.32;;;;;;;;;;3587514;40;20052;-58
2021/06/02 02:32:16;;;;;;;7.03;5.13;;;;;;;;;;3587576;40;20135;-59
2021/06/02 02:34:53;;;;;;;6.60;4.90;;;;;;;;;;3586251;40;20466;-58
2021/06/02 02:37:30;;;;;;;6.18;4.75;;;;;;;;;;3587060;40;20044;-58
2021/06/02 02:40:03;;;;;;;9.95;4.47;;;;;;;;;;3586214;40;20058;-58
2021/06/02 02:42:51;;;;;;;8.05;5.20;;;;;;;;;;3586500;40;20040;-58
2021/06/02 02:45:28;;;;;;;6.93;5.10;;;;;;;;;;3587757;40;20052;-58
2021/06/02 02:48:02;;;;;;;5.72;4.68;;;;;;;;;;3586985;40;20068;-58
2021/06/02 02:50:31;;;;;;;11.32;5.00;;;;;;;;;;3587150;40;20404;-58
2021/06/02 02:53:12;;;;;;;6.68;4.50;;;;;;;;;;3587464;40;20046;-58
2021/06/02 02:55:38;;;;;;;9.13;5.00;;;;;;;;;;3586280;40;20029;-58
2021/06/02 02:58:22;;;;;;;12.25;5.38;;;;;;;;;;3588919;40;20248;-58
2021/06/02 03:00:53;;;;;;;6.53;4.45;;;;;;;;;;3576243;40;20045;-58
2021/06/02 03:03:33;;;;;;;7.88;4.63;;;;;;;;;;3578609;40;20140;-58
2021/06/02 03:06:23;;;;;;;9.55;5.47;;;;;;;;;;3579170;40;20040;-58
2021/06/02 03:09:13;;;;;;;12.52;4.97;;;;;;;;;;3584969;40;20036;-58
2021/06/02 03:11:44;;;;;;;7.57;4.45;;;;;;;;;;3585656;40;20032;-58
2021/06/02 03:14:22;;;;;;;7.97;5.15;;;;;;;;;;3587560;40;20091;-58
2021/06/02 03:17:09;;;;;;;6.40;4.97;;;;;;;;;;3586733;40;20043;-58
2021/06/02 03:19:46;;;;;;;8.77;4.90;;;;;;;;;;3583317;40;20036;-58
2021/06/02 03:22:14;;;;;;;8.15;6.07;;;;;;;;;;3587108;40;20232;-58
2021/06/02 03:25:05;;;;;;;6.55;5.18;;;;;;;;;;3586951;40;20037;-58
2021/06/02 03:27:35;;;;;;;8.02;4.80;;;;;;;;;;3585536;40;20047;-58
2021/06/02 03:30:21;;;;;;;7.35;4.88;;;;;;;;;;3576517;40;20059;-59
2021/06/02 03:33:16;;;;;;;8.15;5.90;;;;;;;;;;3586632;40;20044;-59
2021/06/02 03:35:44;;;;;;;8.38;5.43;;;;;;;;;;3587196;40;20047;-59
2021/06/02 03:38:22;;;;;;;6.43;4.90;;;;;;;;;;3585157;39;20032;-58
2021/06/02 03:41:00;;;;;;;6.68;5.25;;;;;;;;;;3587039;40;20386;-58
2021/06/02 03:43:31;;;;;;;8.98;5.63;;;;;;;;;;3586343;40;20383;-58
2021/06/02 03:46:38;;;;;;;8.45;5.95;;;;;;;;;;3586196;40;20054;-58
2021/06/02 03:49:14;;;;;;;8.98;6.18;;;;;;;;;;3561824;40;20152;-58
2021/06/02 03:51:54;;;;;;;20.48;5.95;;;;;;;;;;3579630;40;20059;-58
2021/06/02 03:54:36;;;;;;;7.60;5.65;;;;;;;;;;3586711;40;20032;-58
2021/06/02 03:57:16;;;;;;;16.15;6.15;;;;;;;;;;3587376;40;20043;-59
2021/06/02 03:59:56;;;;;;;9.40;5.80;;;;;;;;;;3585256;40;20064;-58
2021/06/02 04:02:42;;;;;;;9.57;6.40;;;;;;;;;;3587752;40;20162;-58
2021/06/02 04:05:33;;;;;;;8.00;5.80;;;;;;;;;;3586636;40;20037;-58
2021/06/02 04:08:29;;;;;;;9.50;6.13;;;;;;;;;;3586208;40;20087;-58
2021/06/02 04:11:19;;;;;;;8.45;5.85;;;;;;;;;;3586092;40;20068;-58
2021/06/02 04:14:05;;;;;;;7.78;5.90;;;;;;;;;;3586100;40;20080;-58
2021/06/02 04:16:33;;;;;;;8.60;6.00;;;;;;;;;;3583942;40;20072;-58
2021/06/02 04:19:01;;;;;;;9.80;6.18;;;;;;;;;;3587045;40;20040;-58
2021/06/02 04:21:27;;;;;;;12.88;6.50;;;;;;;;;;3587100;40;20083;-58
2021/06/02 04:23:53;;;;;;;6.65;5.57;;;;;;;;;;3577365;40;20280;-58
2021/06/02 04:26:21;;;;;;;9.55;6.40;;;;;;;;;;3586339;40;20040;-58
2021/06/02 04:28:48;;;;;;;9.02;6.13;;;;;;;;;;3586217;40;20079;-58
2021/06/02 04:31:14;;;;;;;9.88;6.65;;;;;;;;;;3579296;40;20091;-58
2021/06/02 04:33:43;;;;;;;10.15;6.30;;;;;;;;;;3578370;40;20029;-59
2021/06/02 04:36:11;;;;;;;9.70;6.20;;;;;;;;;;3588420;40;20043;-59
2021/06/02 04:38:37;;;;;;;13.35;5.90;;;;;;;;;;3586790;40;20033;-59
2021/06/02 04:41:05;;;;;;;9.18;6.10;;;;;;;;;;3587039;40;20627;-59
2021/06/02 04:43:34;;;;;;;7.13;5.50;;;;;;;;;;3578704;40;20047;-60
2021/06/02 04:46:01;;;;;;;8.45;6.10;;;;;;;;;;3588072;40;20068;-59
2021/06/02 04:48:28;;;;;;;9.27;5.55;;;;;;;;;;3586961;40;20032;-59
2021/06/02 04:51:16;;;;;;;9.77;6.32;;;;;;;;;;3586417;40;20279;-59
2021/06/02 04:54:00;;;;;;;9.40;5.70;;;;;;;;;;3587837;40;20055;-60
2021/06/02 04:56:43;;;;;;;12.73;5.53;;;;;;;;;;3588220;40;20036;-60
2021/06/02 04:59:36;;;;;;;7.95;5.88;;;;;;;;;;3584278;40;20042;-59
2021/06/02 05:02:18;;;;;;;10.00;5.75;;;;;;;;;;3578625;40;20277;-58
2021/06/02 05:05:21;;;;;;;6.75;5.38;;;;;;;;;;3578145;40;20564;-59
2021/06/02 05:08:20;;;;;;;7.00;5.13;;;;;;;;;;3587745;40;20037;-59
2021/06/02 05:11:01;;;;;;;6.63;5.47;;;;;;;;;;3586993;40;20036;-58
2021/06/02 05:13:45;;;;;;;14.57;6.05;;;;;;;;;;3580697;40;20040;-60
2021/06/02 05:16:48;;;;;;;9.57;5.20;;;;;;;;;;3587411;40;20048;-59
2021/06/02 05:19:55;;;;;;;15.63;5.38;;;;;;;;;;3586945;40;20049;-60
2021/06/02 05:23:05;;;;;;;7.32;5.35;;;;;;;;;;3554691;40;20036;-57
2021/06/02 05:26:07;;;;;;;6.63;4.60;;;;;;;;;;3536258;40;20042;-59
2021/06/02 05:29:01;;;;;;;7.20;5.45;;;;;;;;;;3585609;40;20087;-59
2021/06/02 05:32:04;;;;;;;12.23;5.53;;;;;;;;;;3587124;40;20051;-59
2021/06/02 05:35:07;;;;;;;7.03;5.00;;;;;;;;;;3588631;40;20129;-59
2021/06/02 05:38:01;;;;;;;7.07;4.70;;;;;;;;;;3587087;40;20799;-59
2021/06/02 05:40:48;;;;;;;6.10;4.07;;;;;;;;;;3586401;40;20051;-59
2021/06/02 05:43:44;;;;;;;12.48;4.63;;;;;;;;;;3588447;40;20163;-59
2021/06/02 05:46:28;;;;;;;6.50;4.70;;;;;;;;;;3586906;40;20396;-59
2021/06/02 05:49:12;;;;;;;8.63;4.50;;;;;;;;;;3585467;40;20036;-59
2021/06/02 05:52:28;;;;;;;10.43;4.95;;;;;;;;;;3589220;40;20108;-59
2021/06/02 05:55:10;;;;;;;8.35;4.32;;;;;;;;;;3542816;40;20125;-59
2021/06/02 05:57:57;;;;;;;5.90;4.15;;;;;;;;;;3586391;40;20129;-59
2021/06/02 06:00:55;;;;;;;5.95;4.43;;;;;;;;;;3568981;40;20065;-59
2021/06/02 06:03:46;;;;;;;5.65;3.75;;;;;;;;;;3584907;40;20033;-58
2021/06/02 06:06:45;;;;;;;8.00;3.88;;;;;;;;;;3586701;40;20105;-58
2021/06/02 06:09:46;;;;;;;10.18;4.60;;;;;;;;;;3584638;40;20073;-58
2021/06/02 06:12:30;;;;;;;;;;;;;;;;;;3587541;40;20068;-58
2021/06/02 06:15:01;;;;;;;5.30;3.78;;;;;;;;;;3587495;40;20261;-63
2021/06/02 06:17:51;;;;;;;6.45;4.50;;;;;;;;;;3586869;40;20129;-63
2021/06/02 06:20:33;;;;;;;5.30;3.95;;;;;;;;;;3586340;40;20193;-64
2021/06/02 06:23:04;;;;;;;6.57;4.32;;;;;;;;;;3587597;40;20404;-63
2021/06/02 06:25:38;;;;;;;11.23;4.10;;;;;;;;;;3586780;40;20033;-63
2021/06/02 06:28:18;;;;;;;8.15;3.70;;;;;;;;;;3585669;40;20076;-63
2021/06/02 06:30:49;;;;;;;5.57;3.90;;;;;;;;;;3586720;40;20048;-63
2021/06/02 06:33:16;;;;;;;5.90;4.00;;;;;;;;;;3587033;40;20159;-63
2021/06/02 06:35:43;;;;;;;5.68;4.03;;;;;;;;;;3586721;40;20089;-63
2021/06/02 06:38:14;;;;;;;9.95;3.72;;;;;;;;;;3584102;40;20193;-63
2021/06/02 06:40:39;;;;;;;;;;;;;;;;;;3587171;40;20060;-64
2021/06/02 06:43:10;;;;;;;13.40;4.03;;;;;;;;;;3585537;40;19966;-63
2021/06/02 06:45:38;;;;;;;7.82;3.60;;;;;;;;;;3586087;40;20025;-63
2021/06/02 06:48:17;;;;;;;6.53;3.75;;;;;;;;;;3585225;40;20465;-64
2021/06/02 06:50:48;;;;;;;5.75;3.72;;;;;;;;;;3586986;40;20086;-64
2021/06/02 06:53:14;;;;;;;;;;;;;;;;;;3587421;40;20029;-64
2021/06/02 06:55:39;;;;;;;9.63;3.30;;;;;;;;;;3587815;40;19936;-64
2021/06/02 06:58:06;;;;;;;6.15;3.53;;;;;;;;;;3586378;40;20980;-64
2021/06/02 07:00:32;;;;;;;4.07;2.88;;;;;;;;;;3582224;40;20041;-64
2021/06/02 07:02:58;;;;;;;4.43;3.17;;;;;;;;;;3588985;40;20076;-64
2021/06/02 07:05:26;;;;;;;4.35;3.15;;;;;;;;;;3577751;40;20134;-63
2021/06/02 07:07:52;;;;;;;5.40;3.25;;;;;;;;;;3585631;40;20129;-64
2021/06/02 07:10:20;;;;;;;7.22;3.53;;;;;;;;;;3586689;40;20301;-64
2021/06/02 07:12:46;;;;;;;4.70;2.90;;;;;;;;;;3586376;40;20376;-64
2021/06/02 07:15:12;;;;;;;8.05;3.42;;;;;;;;;;3586798;40;20044;-65
2021/06/02 07:17:48;;;;;;;6.68;3.58;;;;;;;;;;3584777;40;20365;-64
2021/06/02 07:20:22;;;;;;;5.10;3.50;;;;;;;;;;3585627;40;20028;-63
2021/06/02 07:22:49;;;;;;;6.97;3.40;;;;;;;;;;3585539;40;20043;-63
2021/06/02 07:25:20;;;;;;;5.82;3.22;;;;;;;;;;3579734;40;20293;-64
2021/06/02 07:27:47;;;;;;;7.05;2.85;;;;;;;;;;3586082;40;20275;-65
2021/06/02 07:30:22;;;;;;;6.43;2.88;;;;;;;;;;3586052;40;20042;-64
2021/06/02 07:32:48;;;;;;;6.68;2.80;;;;;;;;;;3586538;40;20033;-64
2021/06/02 07:35:13;;;;;;;9.45;2.88;;;;;;;;;;3586814;40;20392;-64
2021/06/02 07:37:39;;;;;;;6.28;2.90;;;;;;;;;;3585542;40;20040;-64
2021/06/02 07:40:06;;;;;;;4.13;2.63;;;;;;;;;;3583726;40;20040;-65
2021/06/02 07:42:31;;;;;;;8.32;2.65;;;;;;;;;;3585144;40;20049;-63
2021/06/02 07:44:57;;;;;;;7.85;2.70;;;;;;;;;;3586417;40;20059;-64
2021/06/02 07:47:22;;;;;;;7.22;2.80;;;;;;;;;;3587302;40;20045;-62
2021/06/02 07:49:48;;;;;;;6.95;2.53;;;;;;;;;;3585099;40;20069;-62
2021/06/02 07:52:13;;;;;;;5.68;2.38;;;;;;;;;;3578831;40;20626;-63
2021/06/02 07:54:40;;;;;;;4.25;2.33;;;;;;;;;;3585106;40;20411;-62
2021/06/02 07:57:06;;;;;;;9.65;2.35;;;;;;;;;;3585435;40;20052;-63
2021/06/02 07:59:31;;;;;;;5.63;2.50;;;;;;;;;;3585975;40;20035;-63
2021/06/02 08:01:57;;;;;;;8.07;2.85;;;;;;;;;;3586828;40;20051;-63
2021/06/02 08:04:22;;;;;;;4.82;2.40;;;;;;;;;;3586417;40;20055;-62
2021/06/02 08:06:48;;;;;;;4.53;2.38;;;;;;;;;;3584989;40;20036;-63
2021/06/02 08:09:17;;;;;;;4.65;2.25;;;;;;;;;;3584662;40;20073;-63
2021/06/02 08:11:44;;;;;;;5.53;2.58;;;;;;;;;;3586195;40;20040;-63
2021/06/02 08:14:10;;;;;;;6.07;2.08;;;;;;;;;;3586561;40;20040;-63
2021/06/02 08:16:35;;;;;;;6.22;2.30;;;;;;;;;;3586004;40;20453;-63
2021/06/02 08:19:01;;;;;;;4.72;2.13;;;;;;;;;;3585729;40;20067;-63
2021/06/02 08:21:26;;;;;;;4.00;2.08;;;;;;;;;;3586562;40;20048;-63
2021/06/02 08:23:52;;;;;;;3.75;2.00;;;;;;;;;;3580431;40;20036;-63
2021/06/02 08:26:17;;;;;;;6.50;2.28;;;;;;;;;;3585771;40;20036;-62
2021/06/02 08:28:42;;;;;;;3.95;2.00;;;;;;;;;;3586011;40;20039;-63
2021/06/02 08:31:08;;;;;;;4.07;2.28;;;;;;;;;;3585779;40;20040;-63
2021/06/02 08:33:33;;;;;;;3.78;2.17;;;;;;;;;;3586431;40;20071;-63
2021/06/02 08:35:59;;;;;;;7.57;2.30;;;;;;;;;;3586805;40;20037;-62
2021/06/02 08:38:24;;;;;;;4.70;2.45;;;;;;;;;;3585810;40;20056;-62
2021/06/02 08:40:50;;;;;;;7.03;2.53;;;;;;;;;;3585736;40;20372;-62
2021/06/02 08:43:19;;;;;;;6.47;2.53;;;;;;;;;;3586726;40;20035;-64
2021/06/02 08:45:46;;;;;;;4.25;2.42;;;;;;;;;;3570186;40;20041;-63
2021/06/02 08:48:11;;;;;;;4.88;2.40;;;;;;;;;;3583828;40;20040;-63
2021/06/02 08:50:37;;;;;;;6.50;2.30;;;;;;;;;;3585786;40;20041;-63
2021/06/02 08:53:03;;;;;;;5.15;2.42;;;;;;;;;;3586563;40;20048;-64
2021/06/02 08:55:29;;;;;;;8.30;2.28;;;;;;;;;;3579177;40;20066;-63
2021/06/02 08:57:54;;;;;;;7.63;2.38;;;;;;;;;;3586681;40;20048;-63
2021/06/02 09:00:23;;;;;;;7.68;2.30;;;;;;;;;;3585109;40;20036;-63
2021/06/02 09:02:58;;;;;;;5.03;2.33;;;;;;;;;;3586768;40;20072;-62
2021/06/02 09:05:25;;;;;;;7.93;2.95;;;;;;;;;;3586601;40;20040;-62
2021/06/02 09:07:53;;;;;;;4.93;2.78;;;;;;;;;;3584043;40;20071;-62
2021/06/02 09:10:19;;;;;;;4.38;2.78;;;;;;;;;;3584958;40;20065;-63
2021/06/02 09:12:46;;;;;;;7.00;2.40;;;;;;;;;;3586686;40;20361;-62
2021/06/02 09:15:13;;;;;;;6.22;2.45;;;;;;;;;;3585306;40;20044;-64
2021/06/02 09:17:53;;;;;;;5.47;2.38;;;;;;;;;;3586492;40;20058;-67
2021/06/02 09:20:44;;;;;;;5.25;2.58;;;;;;;;;;3585330;40;20044;-63
2021/06/02 09:23:28;;;;;;;;;;;;;;;;;;3586892;40;20037;-63
2021/06/02 09:26:09;;;;;;;4.32;2.20;;;;;;;;;;3585904;40;20560;-63
2021/06/02 09:28:58;;;;;;;4.72;2.70;;;;;;;;;;3583009;40;20350;-64
2021/06/02 09:31:44;;;;;;;4.45;2.58;;;;;;;;;;3584776;40;20067;-66
2021/06/02 09:34:21;;;;;;;3.95;2.47;;;;;;;;;;3577904;40;20130;-62
2021/06/02 09:37:02;;;;;;;4.53;2.53;;;;;;;;;;3584818;40;20103;-63
2021/06/02 09:39:27;;;;;;;4.65;2.65;;;;;;;;;;3583382;40;20071;-63
2021/06/02 09:41:57;;;;;;;5.15;2.55;;;;;;;;;;3587529;40;20060;-62
2021/06/02 09:44:24;;;;;;;3.67;2.30;;;;;;;;;;3586686;40;20372;-63
2021/06/02 09:47:11;;;;;;;4.40;2.20;;;;;;;;;;3587667;40;20364;-64
2021/06/02 09:49:48;;;;;;;4.25;2.50;;;;;;;;;;3585676;40;20045;-64
2021/06/02 09:52:15;;;;;;;4.15;2.28;;;;;;;;;;3584126;40;20041;-64
2021/06/02 09:54:40;;;;;;;5.13;2.72;;;;;;;;;;3588373;40;20256;-65
2021/06/02 09:57:10;;;;;;;7.05;2.88;;;;;;;;;;3577048;40;20055;-63
2021/06/02 09:59:59;;;;;;;9.95;2.15;;;;;;;;;;3586273;40;20420;-63
2021/06/02 10:02:25;;;;;;;3.80;2.60;;;;;;;;;;3585871;40;20032;-62
2021/06/02 10:05:08;;;;;;;4.35;2.05;;;;;;;;;;3585738;40;20245;-63
2021/06/02 10:07:43;;;;;;;4.38;2.13;;;;;;;;;;3583638;40;20029;-65
2021/06/02 10:10:20;;;;;;;3.58;2.10;;;;;;;;;;3585403;40;20036;-64
2021/06/02 10:13:04;;;;;;;3.67;2.30;;;;;;;;;;3585850;40;20028;-65
2021/06/02 10:15:31;;;;;;;3.63;2.33;;;;;;;;;;3584548;40;20032;-64
2021/06/02 10:17:57;;;;;;;6.45;2.35;;;;;;;;;;3585329;40;20037;-64
2021/06/02 10:20:22;;;;;;;4.15;2.53;;;;;;;;;;3584109;40;20793;-65
2021/06/02 10:22:52;;;;;;;3.00;1.92;;;;;;;;;;3584973;40;20064;-63
2021/06/02 10:25:20;;;;;;;4.47;2.50;;;;;;;;;;3577090;40;20025;-65
2021/06/02 10:27:49;;;;;;;4.03;2.55;;;;;;;;;;3576394;40;20036;-64
2021/06/02 10:30:15;;;;;;;7.10;2.58;;;;;;;;;;3575949;40;20553;-64
2021/06/02 10:32:41;;;;;;;4.80;2.13;;;;;;;;;;3585589;40;20289;-64
2021/06/02 10:35:07;;;;;;;8.32;2.15;;;;;;;;;;3586190;40;20265;-65
2021/06/02 10:37:39;;;;;;;5.53;2.35;;;;;;;;;;3583520;40;20036;-65
2021/06/02 10:40:07;;;;;;;3.92;2.63;;;;;;;;;;3582736;40;20048;-65
2021/06/02 10:42:48;;;;;;;5.35;2.10;;;;;;;;;;3585671;40;20043;-65
2021/06/02 10:45:31;;;;;;;4.25;1.92;;;;;;;;;;3586002;40;20038;-65
2021/06/02 10:48:02;;;;;;;4.65;2.10;;;;;;;;;;3584503;40;20056;-65
2021/06/02 10:50:38;;;;;;;7.05;2.33;;;;;;;;;;3585114;40;20033;-63
2021/06/02 10:53:28;;;;;;;4.97;2.20;;;;;;;;;;3583728;40;20045;-64
2021/06/02 10:55:56;;;;;;;5.20;2.50;;;;;;;;;;3585647;40;20230;-65
2021/06/02 10:58:27;;;;;;;4.53;2.08;;;;;;;;;;3585309;40;20043;-64
2021/06/02 11:01:05;;;;;;;3.30;2.10;;;;;;;;;;3585679;40;20040;-65
2021/06/02 11:03:31;;;;;;;4.03;2.00;;;;;;;;;;3586051;40;20036;-64
2021/06/02 11:06:05;;;;;;;3.00;2.03;;;;;;;;;;3586230;40;20040;-65
2021/06/02 11:08:52;;;;;;;5.47;2.42;;;;;;;;;;3584816;40;20040;-65
2021/06/02 11:11:30;;;;;;;4.45;2.20;;;;;;;;;;3586299;40;20067;-64
2021/06/02 11:14:18;;;;;;;6.72;2.60;;;;;;;;;;3586340;40;20296;-66
2021/06/02 11:16:46;;;;;;;3.70;2.33;;;;;;;;;;3586007;40;20098;-64
2021/06/02 11:19:38;;;;;;;6.88;2.35;;;;;;;;;;3583743;40;20060;-64
2021/06/02 11:22:28;;;;;;;4.05;2.30;;;;;;;;;;3576913;40;20048;-64
2021/06/02 11:24:56;;;;;;;3.95;2.00;;;;;;;;;;3586095;40;20024;-65
2021/06/02 11:27:21;;;;;;;3.72;2.20;;;;;;;;;;3584445;40;20028;-65
2021/06/02 11:29:53;;;;;;;4.10;2.28;;;;;;;;;;3586655;40;20070;-65
2021/06/02 11:32:25;;;;;;;4.82;2.08;;;;;;;;;;3587192;40;20076;-65
2021/06/02 11:35:06;;;;;;;4.90;2.20;;;;;;;;;;3586747;40;20029;-65
2021/06/02 11:37:32;;;;;;;;;;;;;;;;;;3586031;40;20364;-64
2021/06/02 11:40:05;;;;;;;5.03;2.58;;;;;;;;;;3584801;40;19962;-65
2021/06/02 11:42:45;;;;;;;4.30;2.70;;;;;;;;;;3587796;40;20028;-64
2021/06/02 11:45:16;;;;;;;3.65;2.33;;;;;;;;;;3587673;40;20033;-63
2021/06/02 11:47:48;;;;;;;4.25;2.40;;;;;;;;;;3585843;40;20301;-63
2021/06/02 11:50:17;;;;;;;4.38;1.80;;;;;;;;;;3578739;40;20357;-63
2021/06/02 11:52:44;;;;;;;3.72;2.30;;;;;;;;;;3585374;40;20068;-64
2021/06/02 11:55:13;;;;;;;5.07;2.30;;;;;;;;;;3585702;40;20069;-64
2021/06/02 11:57:39;;;;;;;3.67;1.98;;;;;;;;;;3585746;40;20727;-64
2021/06/02 12:00:11;;;;;;;4.75;2.40;;;;;;;;;;3585273;40;20345;-64
2021/06/02 12:02:38;;;;;;;4.60;2.00;;;;;;;;;;3586003;40;20059;-65
2021/06/02 12:05:36;;;;;;;6.70;2.00;;;;;;;;;;3585414;40;20044;-64
2021/06/02 12:08:22;;;;;;;3.50;2.00;;;;;;;;;;3571791;40;20072;-64
2021/06/02 12:10:49;;;;;;;11.57;2.33;;;;;;;;;;3586009;40;20106;-64
2021/06/02 12:13:24;;;;;;;4.53;2.17;;;;;;;;;;3585559;40;20474;-64
2021/06/02 12:15:57;;;;;;;5.70;2.97;;;;;;;;;;3583683;40;20122;-64
2021/06/02 12:18:50;;;;;;;3.83;1.90;;;;;;;;;;3585846;40;20048;-65
2021/06/02 12:21:21;;;;;;;4.20;2.72;;;;;;;;;;3577258;40;20041;-66
2021/06/02 12:24:05;;;;;;;4.43;2.28;;;;;;;;;;3585982;39;20041;-65
2021/06/02 12:26:32;;;;;;;4.90;2.33;;;;;;;;;;3586314;40;20080;-64
2021/06/02 12:29:00;;;;;;;3.78;2.13;;;;;;;;;;3585803;40;20154;-64
2021/06/02 12:31:42;;;;;;;7.35;2.63;;;;;;;;;;3585483;40;20040;-65
2021/06/02 12:34:11;;;;;;;5.07;2.40;;;;;;;;;;3585866;40;20045;-65
2021/06/02 12:36:42;;;;;;;5.45;2.33;;;;;;;;;;3583355;40;20098;-64
2021/06/02 12:39:10;;;;;;;3.20;1.92;;;;;;;;;;3576864;40;20060;-65
2021/06/02 12:41:37;;;;;;;4.47;2.17;;;;;;;;;;3585247;40;20060;-65
2021/06/02 12:44:04;;;;;;;4.35;2.30;;;;;;;;;;3586405;40;20049;-63
2021/06/02 12:46:30;;;;;;;5.13;2.22;;;;;;;;;;3584448;40;20039;-63
2021/06/02 12:48:56;;;;;;;4.35;2.42;;;;;;;;;;3585744;40;20039;-63
2021/06/02 12:51:24;;;;;;;2.97;1.95;;;;;;;;;;3588602;40;20044;-62
2021/06/02 12:53:50;;;;;;;3.35;1.92;;;;;;;;;;3578660;40;20073;-63
2021/06/02 12:56:17;;;;;;;7.50;2.80;;;;;;;;;;3576557;40;20029;-63
2021/06/02 12:58:50;;;;;;;16.63;4.57;;;;;;;;;;3587301;40;20028;-63
2021/06/02 13:01:17;;;;;;;3.63;2.03;;;;;;;;;;3588535;40;20033;-64
2021/06/02 13:03:48;;;;;;;5.68;2.20;;;;;;;;;;3588841;40;20134;-63
2021/06/02 13:06:19;;;;;;;8.82;3.42;;;;;;;;;;3587214;40;20032;-64
2021/06/02 13:08:45;;;;;;;8.48;2.67;;;;;;;;;;3586751;40;20029;-64
2021/06/02 13:11:12;;;;;;;7.20;2.22;;;;;;;;;;3586418;40;20296;-67
2021/06/02 13:13:40;;;;;;;4.32;2.88;;;;;;;;;;3588075;40;20044;-65
2021/06/02 13:16:08;;;;;;;4.90;2.13;;;;;;;;;;3586509;40;20056;-66
2021/06/02 13:18:33;;;;;;;4.20;2.42;;;;;;;;;;3586486;40;20051;-66
2021/06/02 13:21:11;;;;;;;3.97;2.30;;;;;;;;;;3587995;40;20395;-65
2021/06/02 13:23:37;;;;;;;3.67;2.13;;;;;;;;;;3586058;40;20052;-65
2021/06/02 13:26:08;;;;;;;6.68;3.83;;;;;;;;;;3577429;40;20049;-66
2021/06/02 13:28:47;;;;;;;4.03;1.98;;;;;;;;;;3586348;40;20029;-65
2021/06/02 13:31:14;;;;;;;5.20;2.87;;;;;;;;;;3586183;40;20051;-66
2021/06/02 13:33:42;;;;;;;4.57;2.72;;;;;;;;;;3587564;40;20544;-66
2021/06/02 13:36:13;;;;;;;3.03;1.90;;;;;;;;;;3586911;40;20032;-67
2021/06/02 13:38:39;;;;;;;3.97;1.92;;;;;;;;;;3585661;39;20122;-66
2021/06/02 13:41:06;;;;;;;5.43;2.10;;;;;;;;;;3587332;40;20045;-66
2021/06/02 13:43:42;;;;;;;7.28;1.95;;;;;;;;;;3586128;40;20041;-66
2021/06/02 13:46:10;;;;;;;3.58;1.77;;;;;;;;;;3586705;40;20036;-66
2021/06/02 13:48:38;;;;;;;4.28;2.60;;;;;;;;;;3587533;39;20392;-66
2021/06/02 13:51:16;;;;;;;4.32;2.33;;;;;;;;;;3587253;40;20142;-66
2021/06/02 13:54:01;;;;;;;5.57;2.80;;;;;;;;;;3586453;40;20050;-66
2021/06/02 13:56:28;;;;;;;3.90;1.90;;;;;;;;;;3585731;40;20092;-66
2021/06/02 13:59:19;;;;;;;5.03;2.00;;;;;;;;;;3585138;40;20583;-60
2021/06/02 14:01:47;;;;;;;5.20;2.53;;;;;;;;;;3588465;39;20058;-60
2021/06/02 14:04:13;;;;;;;4.53;2.15;;;;;;;;;;3586359;40;20147;-60
2021/06/02 14:06:39;;;;;;;6.50;2.45;;;;;;;;;;3586142;40;20037;-60
2021/06/02 14:09:07;;;;;;;2.97;1.88;;;;;;;;;;3586046;40;20035;-61
2021/06/02 14:11:32;;;;;;;4.40;1.98;;;;;;;;;;3577252;40;20033;-60
2021/06/02 14:13:58;;;;;;;5.53;2.40;;;;;;;;;;3586834;40;20060;-60
2021/06/02 14:16:24;;;;;;;11.20;2.20;;;;;;;;;;3584291;40;20138;-59
2021/06/02 14:18:54;;;;;;;6.97;2.78;;;;;;;;;;3584704;40;20048;-59
2021/06/02 14:21:21;;;;;;;5.78;2.65;;;;;;;;;;3587288;40;20114;-59
2021/06/02 14:23:47;;;;;;;3.35;2.05;;;;;;;;;;3586441;40;20029;-59
2021/06/02 14:26:16;;;;;;;5.40;2.10;;;;;;;;;;3586266;40;20043;-59
2021/06/02 14:28:42;;;;;;;4.32;2.78;;;;;;;;;;3586158;40;20300;-60
2021/06/02 14:31:08;;;;;;;4.30;2.00;;;;;;;;;;3587961;40;20041;-59
2021/06/02 14:33:34;;;;;;;3.47;1.75;;;;;;;;;;3586912;40;20425;-59
2021/06/02 14:36:00;;;;;;;2.90;1.63;;;;;;;;;;3586428;40;20032;-60
2021/06/02 14:38:27;;;;;;;6.40;2.00;;;;;;;;;;3585328;40;20029;-60
2021/06/02 14:40:52;;;;;;;2.80;1.73;;;;;;;;;;3585273;40;20253;-60
2021/06/02 14:43:18;;;;;;;3.90;1.95;;;;;;;;;;3587441;40;20069;-60
2021/06/02 14:45:44;;;;;;;2.90;1.67;;;;;;;;;;3585083;40;20037;-59
2021/06/02 14:48:10;;;;;;;4.65;2.00;;;;;;;;;;3585725;40;20121;-59
2021/06/02 14:50:36;;;;;;;3.35;1.75;;;;;;;;;;3587140;40;20041;-65
2021/06/02 14:53:01;;;;;;;3.85;1.92;;;;;;;;;;3587248;40;20043;-65
2021/06/02 14:55:28;;;;;;;3.83;2.00;;;;;;;;;;3586323;40;20040;-65
2021/06/02 14:57:54;;;;;;;7.85;2.83;;;;;;;;;;3584836;40;20051;-64
2021/06/02 15:00:20;;;;;;;3.95;2.20;;;;;;;;;;3587103;40;20047;-64
2021/06/02 15:02:46;;;;;;;5.18;1.80;;;;;;;;;;3587152;40;20033;-64
2021/06/02 15:05:12;;;;;;;5.53;2.22;;;;;;;;;;3585745;40;20383;-64
2021/06/02 15:07:38;;;;;;;6.28;2.05;;;;;;;;;;3578193;40;20043;-64
2021/06/02 15:10:06;;;;;;;5.80;2.33;;;;;;;;;;3587940;40;20554;-64
2021/06/02 15:12:32;;;;;;;3.92;2.17;;;;;;;;;;3588278;40;20044;-65
2021/06/02 15:15:01;;;;;;;3.70;1.85;;;;;;;;;;3587012;40;20040;-65
2021/06/02 15:17:26;;;;;;;5.13;1.90;;;;;;;;;;3586241;40;20118;-64
2021/06/02 15:19:52;;;;;;;8.55;2.00;;;;;;;;;;3587408;40;20048;-64
2021/06/02 15:22:18;;;;;;;2.78;1.63;;;;;;;;;;3586706;40;20454;-64